Weather observations for the past three days for
Colorado Air and Space Port Airport
Imperial (Metric)
Date Time (mdt) Wind (mph) Vis. (mi.) Weather Sky Cond. Temperature (ºF) Relative Humidity Wind Chill (°F) Heat Index (°F) Pressure Precipitation (in)
Air Dwpt 6 hour altimeter (in) sea level (mb) 1 hr 3 hr 6 hr
Max. Min.
05 06:47 SW 12 10.00 Fair CLR 68 50 53% 30.1 0.0
05 06:35 SW 12 10.00 Fair CLR 68 49.8 52% 30.09 0.0
05 06:15 SW 10 10.00 Fair CLR 67.1 50.9 56% 30.09 0.0
05 05:55 SW 10 10.00 Fair CLR 68.2 50.9 75 68 54% 30.09 0.0
05 05:35 SW 10 10.00 Fair CLR 68.2 50.9 54% 30.09 0.0
05 05:15 SW 10 10.00 Fair CLR 68.4 50.9 54% 30.09 0.0
05 04:55 SW 14 10.00 Fair CLR 69.1 50.7 52% 30.09 0.0
05 04:35 SW 13 10.00 Fair CLR 69.4 50.7 52% 30.08 0.0
05 04:15 S 9 10.00 Fair CLR 69.8 50.5 51% 30.08 0.0
05 03:55 S 13 10.00 Fair CLR 70.7 50.5 49% 30.08 0.0
05 03:35 S 13 10.00 Fair CLR 71.2 50.5 48% 30.08 0.0
05 03:15 S 12 10.00 Fair CLR 71.1 50.5 48% 30.08 0.0
05 02:55 S 14 10.00 Fair CLR 71.2 50.4 48% 30.08 0.0
05 02:35 S 13 10.00 Fair CLR 71.4 50.2 47% 30.08 0.0
05 02:15 S 13 10.00 Fair CLR 70.9 50.2 48% 30.09 0.0
05 01:55 S 12 10.00 Fair CLR 71.1 50 47% 30.08 0.0
05 01:35 S 10 10.00 Fair CLR 70.5 50 48% 30.08 0.0
05 01:15 S 12 10.00 Fair CLR 71.6 49.5 46% 30.08 0.0
05 00:55 S 10 10.00 Fair CLR 71.8 49.1 45% 30.08 0.0
05 00:35 S 12 10.00 Fair CLR 73.2 48.6 42% 30.09 0.0
05 00:15 S 10 10.00 Partly Cloudy SCT120 74.7 48 39% 30.09 0.0
04 23:55 S 12 10.00 Mostly Cloudy BKN120 75.4 47.3 92.3 75.4 37% 77 30.08 0.0
04 23:35 S 12 10.00 Overcast OVC120 77 46.6 34% 78 30.07 0.0
04 23:15 S 14 10.00 Overcast OVC120 77.7 46.6 33% 78 30.07 0.0
04 22:55 S 14 10.00 Mostly Cloudy BKN120 79.2 46.4 32% 79 30.07 0.0
04 22:35 S 15 10.00 Fair CLR 78.3 45.5 31% 78 30.07 0.0
04 22:15 S 13 10.00 Partly Cloudy SCT120 80.1 44.8 29% 79 30.07 0.0
04 21:55 S 14 10.00 Partly Cloudy SCT120 81.5 44.1 27% 80 30.07 0.0
04 21:35 SE 8 10.00 Fair CLR 76.8 40.6 27% 77 30.07 0.0
04 21:15 SE 8 10.00 Fair CLR 76.1 40.1 27% 77 30.06 0.0
04 18:47 E 14 10.00 Fair CLR 89.6 33.8 14% 86 30.03 0.0
04 17:47 E 13 G 21 10.00 Fair CLR 91.4 33.8 13% 87 30.02 0.0
04 16:47 E 13 G 22 10.00 Fair CLR 93.2 33.8 12% 89 30.03 0.0
04 15:47 E 10 G 21 10.00 Fair CLR 93.2 32 11% 89 30.04 0.0
04 14:47 NE 12 G 17 10.00 Fair CLR 91.4 32 12% 87 30.06 0.0
04 13:47 E 8 10.00 Fair CLR 91.4 32 12% 87 30.08 0.0
04 12:47 Vrbl 5 10.00 Fair CLR 89.6 30.2 12% 86 30.09 0.0
04 11:47 SE 9 10.00 Fair CLR 89.6 33.8 14% 86 30.11 0.0
04 10:47 S 3 10.00 Fair CLR 84.2 35.6 18% 81 30.11 0.0
04 09:47 Calm 10.00 Fair CLR 82.4 37.4 20% 80 30.1 0.0
04 08:47 SW 5 10.00 Fair CLR 78.8 39.2 24% 78 30.1 0.0
04 07:47 SW 8 10.00 Fair CLR 71.6 42.8 36% 30.09 0.0
04 06:47 SW 9 10.00 Fair CLR 64.4 42.8 46% 30.06 0.0
04 06:35 SW 10 10.00 Fair CLR 64.8 42.1 44% 30.06 0.0
04 06:15 W 10 10.00 Fair CLR 62.2 42.6 49% 30.05 0.0
04 05:55 W 9 10.00 Fair CLR 63.7 42.6 80.2 61.3 46% 30.05 0.0
04 05:35 W 8 10.00 Fair CLR 65.3 42.8 44% 30.04 0.0
04 05:15 W 8 10.00 Fair CLR 63.3 42.6 47% 30.03 0.0
04 04:55 W 9 10.00 Fair CLR 62.4 42.4 48% 30.03 0.0
04 04:35 W 10 10.00 Fair CLR 65.3 42.3 43% 30.03 0.0
04 04:15 W 9 10.00 Fair CLR 64.8 43.2 46% 30.02 0.0
04 03:55 SW 6 10.00 Fair CLR 66.2 43.7 44% 30.01 0.0
04 03:35 SW 5 10.00 Fair CLR 68.7 43.2 40% 30.01 0.0
04 03:15 SW 7 10.00 Fair CLR 67.3 43.9 43% 30.01 0.0
04 02:55 SE 7 10.00 Fair CLR 68.2 43.2 40% 30 0.0
04 02:35 S 3 10.00 Fair CLR 69.1 42.8 39% 30.01 0.0
04 02:15 S 3 10.00 Fair CLR 70.7 42.8 37% 30.01 0.0
04 01:55 S 9 10.00 Fair CLR 71.8 41.9 34% 30.01 0.0
04 01:35 S 8 10.00 Fair CLR 75.7 41.2 29% 77 30.02 0.0
04 01:15 S 5 10.00 Fair CLR 75.6 40.6 29% 77 30.02 0.0
04 00:55 SW 7 10.00 Fair CLR 75.6 40.1 28% 77 30.02 0.0
04 00:35 S 7 10.00 Fair CLR 77 39.7 26% 77 30.02 0.0
04 00:15 S 9 10.00 Fair CLR 77 37.8 24% 77 30.02 0.0
03 23:55 SW 13 G 22 10.00 Fair CLR 78.4 36.9 90.7 72.3 22% 78 30.02 0.0
03 23:35 SW 13 G 17 10.00 Fair CLR 77.9 36.3 22% 78 30.02 0.0
03 23:15 SW 14 10.00 Fair CLR 79.7 36.9 21% 78 30.02 0.0
03 22:55 S 13 G 17 10.00 Fair CLR 77.2 38.3 25% 77 30.02 0.0
03 22:35 S 10 10.00 Fair CLR 73.4 36.9 26% 30.02 0.0
03 22:15 S 10 10.00 Fair CLR 73.4 35.8 25% 30.02 0.0
03 21:55 SW 5 10.00 Fair CLR 73.9 36.5 26% 30.01 0.0
03 21:35 S 10 10.00 Fair CLR 73.9 36.9 26% 30.01 0.0
03 21:15 SE 12 10.00 Fair CLR 77 35.2 22% 77 30 0.0
03 18:47 E 15 G 21 10.00 Fair CLR 87.8 30.2 13% 84 29.97 0.0
03 17:47 E 16 G 22 10.00 Fair CLR 91.4 28.4 10% 87 29.98 0.0
03 16:47 E 15 G 23 10.00 Fair CLR 91.4 30.2 11% 87 29.99 0.0
03 14:47 E 7 10.00 Fair CLR 91.4 26.6 10% 87 30.02 0.0
03 11:47 Calm 10.00 Fair CLR 86 30.2 13% 83 30.08 0.0
03 10:47 S 7 10.00 Fair CLR 84.2 33.8 16% 81 30.09 0.0
03 09:47 S 7 10.00 Fair CLR 80.6 37.4 21% 79 30.09 0.0
03 06:35 S 8 10.00 Fair CLR 57.2 48.9 74% 30.07 0.0
03 06:15 S 9 10.00 Fair CLR 56.8 49.1 75% 30.06 0.0
03 05:55 S 8 10.00 Fair CLR 57.7 49.1 68 57.6 73% 30.06 0.0
03 05:35 S 9 10.00 Fair CLR 58.6 49.3 71% 30.05 0.0
03 05:15 S 8 10.00 Fair CLR 58.5 49.6 73% 30.05 0.0
03 04:55 S 8 10.00 Fair CLR 57.6 49.6 75% 30.05 0.0
03 04:35 S 8 10.00 Fair CLR 58.5 49.5 72% 30.05 0.0
03 04:15 SW 6 10.00 Fair CLR 61.3 48.7 63% 30.06 0.0
03 03:55 SW 9 10.00 Fair CLR 63 48.7 60% 30.05 0.0
03 03:35 SW 9 10.00 Fair CLR 66 48.4 53% 30.06 0.0
03 03:15 SW 6 10.00 Fair CLR 63.7 49.6 60% 30.05 0.0
03 02:55 S 8 10.00 Fair CLR 62.6 50 64% 30.05 0.0
03 02:35 SW 9 10.00 Fair CLR 66.2 49.5 55% 30.05 0.0
03 02:15 SW 9 10.00 Fair CLR 64 50.2 61% 30.06 0.0
03 01:55 SW 9 10.00 Fair CLR 66.4 50 56% 30.06 0.0
03 01:35 SW 8 10.00 Fair CLR 64.9 50 59% 30.06 0.0
03 01:15 SW 6 10.00 Fair CLR 66.7 49.5 54% 30.06 0.0
03 00:55 SW 9 10.00 Fair CLR 67.3 50.4 55% 30.07 0.0
03 00:35 SW 7 10.00 Fair CLR 66.7 50.9 57% 30.07 0.0
03 00:15 SW 6 10.00 Partly Cloudy SCT120 67.1 51.6 58% 30.06 0.0
02 23:55 W 3 10.00 Partly Cloudy SCT120 65.3 53.8 86.7 63.7 66% 30.07 0.0
02 23:35 W 10 10.00 Fair CLR 64.6 53.8 68% 30.07 0.0
02 23:15 Calm 10.00 Fair CLR 65.8 53.2 64% 30.06 0.0
02 22:55 SE 6 10.00 Fair CLR 65.3 53.6 66% 30.07 0.0
02 22:35 E 6 10.00 Partly Cloudy SCT120 66.6 53.1 62% 30.07 0.0
02 22:15 NE 6 10.00 Fair CLR 66.6 54.7 66% 30.06 0.0
02 21:55 N 7 10.00 Partly Cloudy SCT120 67.3 54.7 64% 30.06 0.0
02 21:35 N 8 10.00 Overcast OVC110 68.7 54 59% 30.08 0.0
02 21:15 NW 6 10.00 Thunderstorm SCT055 SCT095 BKN110 70.5 50.9 50% 30.1 0.0
02 15:47 E 13 G 20 10.00 Fair CLR 89.6 39.2 17% 86 30.03 0.0
02 14:47 E 13 G 20 10.00 Fair CLR 89.6 39.2 17% 86 30.07 0.0
02 13:47 E 12 10.00 Partly Cloudy SCT085 87.8 39.2 18% 84 30.09 0.0
02 11:47 E 6 10.00 Fair CLR 84.2 35.6 18% 81 30.14 0.0
02 10:47 NE 6 10.00 Fair CLR 82.4 33.8 17% 80 30.15 0.0
02 09:47 NE 6 10.00 Fair CLR 80.6 39.2 23% 79 30.15 0.0
02 08:47 Calm 10.00 Fair CLR 75.2 44.6 34% 77 30.15 0.0
02 07:47 SW 5 10.00 A Few Clouds FEW100 71.6 44.6 38% 30.14 0.0
Date Time (mdt) Wind (mph) Vis. (mi.) Weather Sky Cond. Air Dwpt Max. Min. Relative Humidity Wind Chill (°F) Heat Index (°F) altimeter (in) sea level (mb) 1 hr 3 hr 6 hr
6 hour
Temperature (ºF) Pressure Precipitation (in)